Magnolia Beach, Texas
Current Conditions -  °F | °C
As of 2:35 PM on Thursday 23 Oct 2014 (Local Time) from KPKV Reporting Station
Clear Clear  
Wind Chill: 80°   Ceiling: Unl
Heat Index: 81°   Visibility: 10mi
Dew Point: 60°   Wind: 9mph
Humidity: 50%   Direction: 40°NE
Pressure: 30.07"   Gusts: NA
Location:  28.5342°N, 96.663°W
Report Text: KPKV 231935Z AUTO 04008KT 10SM CLR 27/16 A3007 RMK AO2 T02670155
Loading
Personal Weather Stations






























Interactive Weather Map
Tropical Storm Tracking
New forecast layout! Learn more

10-Day Weather Forecast

Advertisements
Track Severe Weather on mobile